Terminal Aerodrome Forecast
Issued by NWS Denver/Boulder, CO

Home | Current Version | Previous Version | Text Only | Print | Product List | Glossary On
Versions: 1 2 3 4 5 6 7 8 9 10 11 12 13 14 15 16 17 18 19 20 21 22 23 24 25 26 27 28 29 30 31 32 33 34 35 36 37 38 39 40 41 42 43 44 45 46 47 48 49 50
688
FTUS45 KBOU 222337
TAFDEN
TAF
KDEN 222337Z 2300/2406 34011KT P6SM FEW080 SCT120 BKN200
     FM230400 05007KT P6SM SCT060 BKN090
     FM230900 01010KT P6SM SCT025 OVC050
     FM231100 36020G27KT 5SM BR BKN010 OVC020
      TEMPO 2311/2313 3SM -SHRA BKN008 OVC015
     FM231600 03012KT P6SM SCT035 OVC050
     FM232200 12006KT P6SM SCT040 BKN060
     FM240200 20009KT P6SM FEW060=

USA.gov is the U.S. government's official web portal to all federal, state and local government web resources and services.